Time;durP1;ratioP1;P1;durP2;ratioP2;P2;SDS_P1;SDS_P2;PMS_P1;PMS_P2;Temp;Humidity;BMP_temperature;BMP_pressure;BME280_temperature;BME280_humidity;BME280_pressure;Samples;Min_cycle;Max_cycle;Signal;HPM_P1;HPM_P2
2021/10/07 00:00:35;;;;;;;31.85;26.05;;;;;;;;;;2048489;29;20285;-50
2021/10/07 00:01:36;;;;;;;34.10;26.38;;;;;;;;;;2046785;28;20730;-52
2021/10/07 00:02:36;;;;;;;29.70;23.92;;;;;;;;;;2047768;28;20189;-52
2021/10/07 00:03:36;;;;;;;30.85;24.70;;;;;;;;;;2047952;29;20163;-50
2021/10/07 00:04:37;;;;;;;31.80;24.77;;;;;;;;;;2040169;29;20182;-50
2021/10/07 00:05:37;;;;;;;31.60;25.73;;;;;;;;;;2040711;29;20715;-49
2021/10/07 00:06:37;;;;;;;35.95;26.77;;;;;;;;;;2046405;29;20186;-49
2021/10/07 00:07:38;;;;;;;37.63;27.92;;;;;;;;;;2047961;28;20669;-57
2021/10/07 00:08:38;;;;;;;34.53;26.17;;;;;;;;;;2049048;29;20187;-55
2021/10/07 00:09:39;;;;;;;33.22;25.23;;;;;;;;;;2049146;29;20199;-55
2021/10/07 00:10:39;;;;;;;33.45;25.77;;;;;;;;;;2057327;28;20180;-54
2021/10/07 00:11:39;;;;;;;33.05;25.40;;;;;;;;;;2057390;28;20189;-54
2021/10/07 00:12:39;;;;;;;34.88;26.10;;;;;;;;;;2050369;28;20249;-54
2021/10/07 00:13:40;;;;;;;34.50;26.17;;;;;;;;;;2050105;28;20210;-53
2021/10/07 00:14:40;;;;;;;37.53;27.45;;;;;;;;;;2050079;28;20179;-55
2021/10/07 00:15:40;;;;;;;38.22;27.35;;;;;;;;;;2049237;29;20179;-54
2021/10/07 00:16:41;;;;;;;33.95;26.65;;;;;;;;;;2040190;29;20183;-48
2021/10/07 00:17:41;;;;;;;35.70;26.83;;;;;;;;;;2047671;28;20555;-51
2021/10/07 00:18:42;;;;;;;34.97;26.50;;;;;;;;;;2052882;29;20225;-54
2021/10/07 00:19:42;;;;;;;33.40;25.83;;;;;;;;;;2045432;29;20183;-54
2021/10/07 00:20:43;;;;;;;35.83;26.90;;;;;;;;;;2050029;29;20282;-53
2021/10/07 00:21:43;;;;;;;35.13;25.67;;;;;;;;;;2048050;29;20179;-52
2021/10/07 00:22:45;;;;;;;39.55;27.98;;;;;;;;;;2049188;28;20179;-50
2021/10/07 00:25:16;;;;;;;32.13;24.98;;;;;;;;;;2040103;28;20274;-50
2021/10/07 00:26:17;;;;;;;43.67;28.52;;;;;;;;;;2048980;28;20170;-51
2021/10/07 00:27:17;;;;;;;39.85;28.27;;;;;;;;;;2047881;28;20182;-51
2021/10/07 00:28:18;;;;;;;37.45;27.55;;;;;;;;;;2048310;28;20216;-51
2021/10/07 00:30:34;;;;;;;34.72;24.98;;;;;;;;;;2049190;28;20174;-52
2021/10/07 00:31:38;;;;;;;36.13;27.42;;;;;;;;;;2049845;29;20201;-51
2021/10/07 00:32:48;;;;;;;37.85;26.95;;;;;;;;;;2049636;28;20205;-50
2021/10/07 00:35:39;;;;;;;41.85;27.98;;;;;;;;;;2029742;29;20282;-51
2021/10/07 00:39:17;;;;;;;40.75;29.05;;;;;;;;;;2050384;29;20175;-50
2021/10/07 00:40:17;;;;;;;38.47;28.38;;;;;;;;;;2058695;28;20196;-50
2021/10/07 00:41:17;;;;;;;45.50;30.73;;;;;;;;;;2058135;28;20555;-52
2021/10/07 00:42:18;;;;;;;43.72;30.35;;;;;;;;;;2049825;28;20222;-54
2021/10/07 00:43:18;;;;;;;45.78;31.20;;;;;;;;;;2050273;28;20194;-53
2021/10/07 00:44:19;;;;;;;41.85;28.02;;;;;;;;;;2049770;29;20167;-50
2021/10/07 00:45:19;;;;;;;37.78;28.40;;;;;;;;;;2050011;29;20167;-51
2021/10/07 00:46:19;;;;;;;38.78;27.85;;;;;;;;;;2050661;29;20663;-50
2021/10/07 00:47:20;;;;;;;37.60;26.88;;;;;;;;;;2050146;28;20206;-50
2021/10/07 00:48:20;;;;;;;36.60;27.45;;;;;;;;;;2049708;28;20265;-52
2021/10/07 00:49:22;;;;;;;35.55;26.95;;;;;;;;;;2049249;29;20167;-50
2021/10/07 00:50:22;;;;;;;39.55;28.67;;;;;;;;;;2048990;29;20926;-53
2021/10/07 00:51:22;;;;;;;40.85;28.33;;;;;;;;;;2050721;29;20222;-53
2021/10/07 00:52:22;;;;;;;38.58;27.88;;;;;;;;;;2050510;28;20260;-51
2021/10/07 00:53:23;;;;;;;35.83;27.13;;;;;;;;;;2050097;29;20178;-50
2021/10/07 00:54:25;;;;;;;38.45;27.92;;;;;;;;;;2049563;29;20183;-50
2021/10/07 00:55:25;;;;;;;37.83;27.65;;;;;;;;;;2050449;28;20174;-50
2021/10/07 00:56:26;;;;;;;40.50;28.77;;;;;;;;;;2050543;28;20496;-50
2021/10/07 00:57:26;;;;;;;38.63;27.08;;;;;;;;;;2050707;28;20183;-50
2021/10/07 00:58:26;;;;;;;36.30;27.42;;;;;;;;;;2052754;28;20206;-50
2021/10/07 00:59:26;;;;;;;38.05;26.88;;;;;;;;;;2053418;28;20187;-50
2021/10/07 01:00:27;;;;;;;40.15;27.10;;;;;;;;;;2050721;28;20205;-54
2021/10/07 01:01:27;;;;;;;34.72;25.88;;;;;;;;;;2050860;28;20277;-54
2021/10/07 01:02:27;;;;;;;34.60;26.73;;;;;;;;;;2045524;29;20180;-53
2021/10/07 01:03:29;;;;;;;32.78;24.98;;;;;;;;;;2047489;29;20171;-54
2021/10/07 01:04:30;;;;;;;38.75;26.88;;;;;;;;;;2050174;28;20209;-54
2021/10/07 01:05:30;;;;;;;31.23;25.60;;;;;;;;;;2050708;28;20167;-54
2021/10/07 01:06:31;;;;;;;35.95;25.85;;;;;;;;;;2050237;29;20175;-52
2021/10/07 01:07:31;;;;;;;36.88;28.48;;;;;;;;;;2050385;29;20198;-54
2021/10/07 01:08:31;;;;;;;38.00;27.70;;;;;;;;;;2051080;29;20167;-54
2021/10/07 01:09:32;;;;;;;40.05;27.52;;;;;;;;;;2050188;28;20277;-49
2021/10/07 01:10:32;;;;;;;42.22;28.85;;;;;;;;;;2049807;29;20263;-50
2021/10/07 01:11:32;;;;;;;39.25;28.25;;;;;;;;;;2051095;29;20712;-50
2021/10/07 01:12:33;;;;;;;37.83;27.67;;;;;;;;;;2045963;29;20211;-50
2021/10/07 01:13:37;;;;;;;40.47;29.77;;;;;;;;;;2044348;29;20179;-50
2021/10/07 01:14:48;;;;;;;40.85;28.60;;;;;;;;;;2044111;29;20536;-50
2021/10/07 01:15:48;;;;;;;38.67;26.13;;;;;;;;;;2051332;29;20179;-50
2021/10/07 01:16:49;;;;;;;33.63;26.75;;;;;;;;;;2053699;29;20175;-50
2021/10/07 01:17:49;;;;;;;32.53;25.38;;;;;;;;;;2053866;29;20663;-50
2021/10/07 01:18:49;;;;;;;31.27;25.00;;;;;;;;;;2054446;29;20734;-51
2021/10/07 01:19:53;;;;;;;32.42;25.85;;;;;;;;;;2053914;29;20194;-51
2021/10/07 01:20:54;;;;;;;33.85;26.30;;;;;;;;;;2054202;28;20195;-50
2021/10/07 01:21:57;;;;;;;30.83;25.85;;;;;;;;;;2048614;28;20183;-55
2021/10/07 01:22:57;;;;;;;30.65;25.10;;;;;;;;;;2052262;29;20190;-52
2021/10/07 01:23:57;;;;;;;34.35;25.88;;;;;;;;;;2052854;28;20714;-51
2021/10/07 01:25:00;;;;;;;33.40;25.15;;;;;;;;;;2053566;29;20255;-50
2021/10/07 01:26:00;;;;;;;30.70;24.65;;;;;;;;;;2046228;29;20211;-50
2021/10/07 01:27:00;;;;;;;32.10;25.33;;;;;;;;;;2053664;28;20167;-49
2021/10/07 01:28:00;;;;;;;31.40;24.60;;;;;;;;;;2054156;29;20269;-51
2021/10/07 01:29:01;;;;;;;33.58;25.70;;;;;;;;;;2048149;29;20250;-50
2021/10/07 01:30:04;;;;;;;33.15;25.45;;;;;;;;;;2054036;29;20255;-52
2021/10/07 01:31:05;;;;;;;33.90;25.83;;;;;;;;;;2053704;28;20202;-53
2021/10/07 01:32:06;;;;;;;34.38;26.17;;;;;;;;;;2053619;29;20186;-52
2021/10/07 01:33:06;;;;;;;37.03;27.67;;;;;;;;;;2054267;29;20183;-51
2021/10/07 01:34:06;;;;;;;36.80;27.35;;;;;;;;;;2054270;28;20199;-51
2021/10/07 01:35:08;;;;;;;36.55;27.38;;;;;;;;;;2053305;29;20186;-50
2021/10/07 01:36:08;;;;;;;36.97;26.75;;;;;;;;;;2052784;29;20198;-51
2021/10/07 01:37:08;;;;;;;38.97;27.10;;;;;;;;;;2052729;28;20167;-52
2021/10/07 01:38:09;;;;;;;38.90;28.27;;;;;;;;;;2055390;29;20207;-50
2021/10/07 01:39:09;;;;;;;40.72;29.65;;;;;;;;;;2055039;28;20187;-51
2021/10/07 01:40:11;;;;;;;47.08;31.52;;;;;;;;;;2053898;28;20167;-56
2021/10/07 01:41:11;;;;;;;43.00;30.77;;;;;;;;;;2054285;28;20199;-53
2021/10/07 01:42:11;;;;;;;45.28;31.17;;;;;;;;;;2053639;29;20178;-54
2021/10/07 01:43:12;;;;;;;45.17;29.15;;;;;;;;;;2054423;28;20178;-51
2021/10/07 01:44:12;;;;;;;48.10;30.33;;;;;;;;;;2054845;28;20175;-51
2021/10/07 01:45:12;;;;;;;51.25;32.42;;;;;;;;;;2055155;28;20175;-49
2021/10/07 01:46:13;;;;;;;48.80;30.45;;;;;;;;;;2054576;29;20194;-52
2021/10/07 01:47:13;;;;;;;44.72;29.10;;;;;;;;;;2055781;29;20167;-54
2021/10/07 01:48:13;;;;;;;44.78;28.83;;;;;;;;;;2055593;29;20272;-55
2021/10/07 01:49:14;;;;;;;44.35;30.05;;;;;;;;;;2056426;29;20203;-58
2021/10/07 01:50:14;;;;;;;46.65;30.88;;;;;;;;;;2055722;28;20182;-56
2021/10/07 01:51:15;;;;;;;41.65;28.38;;;;;;;;;;2055574;28;20197;-52
2021/10/07 01:52:15;;;;;;;45.25;28.65;;;;;;;;;;2055511;29;20247;-50
2021/10/07 01:53:15;;;;;;;40.85;27.80;;;;;;;;;;2055513;29;20179;-55
2021/10/07 01:54:16;;;;;;;44.10;28.30;;;;;;;;;;2056258;28;20199;-53
2021/10/07 01:55:16;;;;;;;42.50;29.58;;;;;;;;;;2055323;29;20242;-52
2021/10/07 01:56:16;;;;;;;40.92;27.80;;;;;;;;;;2047556;29;20222;-54
2021/10/07 01:57:16;;;;;;;46.10;27.60;;;;;;;;;;2046515;29;20202;-55
2021/10/07 01:58:17;;;;;;;46.15;29.70;;;;;;;;;;2055775;29;20713;-53
2021/10/07 01:59:19;;;;;;;43.28;29.73;;;;;;;;;;2072302;28;20221;-53
2021/10/07 02:00:20;;;;;;;48.60;33.10;;;;;;;;;;2057721;28;20215;-52
2021/10/07 02:01:20;;;;;;;49.83;33.78;;;;;;;;;;2054594;28;20194;-56
2021/10/07 02:02:21;;;;;;;49.85;33.35;;;;;;;;;;2055673;29;20639;-53
2021/10/07 02:03:21;;;;;;;51.85;33.25;;;;;;;;;;2054963;29;20175;-53
2021/10/07 02:04:21;;;;;;;50.33;31.40;;;;;;;;;;2053727;29;20183;-53
2021/10/07 02:05:21;;;;;;;48.40;29.98;;;;;;;;;;2054839;29;20226;-54
2021/10/07 02:06:22;;;;;;;47.83;31.60;;;;;;;;;;2054417;29;20171;-52
2021/10/07 02:07:23;;;;;;;50.28;32.72;;;;;;;;;;2055445;28;20170;-50
2021/10/07 02:08:23;;;;;;;59.65;34.97;;;;;;;;;;2056268;28;20276;-53
2021/10/07 02:09:23;;;;;;;58.25;35.97;;;;;;;;;;2052723;28;20182;-54
2021/10/07 02:10:23;;;;;;;63.63;37.65;;;;;;;;;;2054423;29;20163;-54
2021/10/07 02:11:24;;;;;;;54.88;34.33;;;;;;;;;;2053158;28;20203;-52
2021/10/07 02:12:24;;;;;;;60.97;35.00;;;;;;;;;;2054726;28;20175;-54
2021/10/07 02:13:25;;;;;;;50.63;31.70;;;;;;;;;;2054308;28;20225;-55
2021/10/07 02:14:25;;;;;;;60.42;35.25;;;;;;;;;;2053891;28;20201;-56
2021/10/07 02:15:26;;;;;;;63.63;37.85;;;;;;;;;;2053748;29;20210;-54
2021/10/07 02:16:27;;;;;;;68.20;38.67;;;;;;;;;;2049316;28;20176;-53
2021/10/07 02:17:27;;;;;;;73.13;40.60;;;;;;;;;;2045227;29;20175;-54
2021/10/07 02:18:28;;;;;;;68.25;39.55;;;;;;;;;;2044717;29;20175;-55
2021/10/07 02:19:28;;;;;;;70.10;40.30;;;;;;;;;;2050485;29;20652;-52
2021/10/07 02:20:28;;;;;;;68.45;39.42;;;;;;;;;;2053312;29;20195;-52
2021/10/07 02:21:28;;;;;;;66.53;38.03;;;;;;;;;;2052308;28;20875;-51
2021/10/07 02:22:29;;;;;;;67.88;37.88;;;;;;;;;;2053784;29;20250;-51
2021/10/07 02:23:29;;;;;;;79.22;39.63;;;;;;;;;;2053997;29;20265;-51
2021/10/07 02:24:29;;;;;;;65.32;39.00;;;;;;;;;;2054557;29;20175;-51
2021/10/07 02:25:30;;;;;;;67.95;39.35;;;;;;;;;;2056381;29;20206;-56
2021/10/07 02:26:30;;;;;;;66.30;38.80;;;;;;;;;;2054877;29;20171;-56
2021/10/07 02:27:31;;;;;;;63.88;36.80;;;;;;;;;;2054673;28;20822;-56
2021/10/07 02:28:31;;;;;;;62.40;35.45;;;;;;;;;;2052329;29;20183;-56
2021/10/07 02:29:31;;;;;;;66.03;36.25;;;;;;;;;;2052853;28;20245;-56
2021/10/07 02:30:32;;;;;;;64.43;37.75;;;;;;;;;;2053285;29;20186;-54
2021/10/07 02:31:32;;;;;;;69.95;37.15;;;;;;;;;;2052497;28;20242;-54
2021/10/07 02:32:32;;;;;;;59.35;34.17;;;;;;;;;;2053354;28;20198;-56
2021/10/07 02:33:32;;;;;;;65.03;36.42;;;;;;;;;;2053155;28;20215;-56
2021/10/07 02:34:33;;;;;;;77.28;39.40;;;;;;;;;;2052757;28;20734;-55
2021/10/07 02:35:33;;;;;;;78.40;42.10;;;;;;;;;;2046131;28;20179;-57
2021/10/07 02:36:34;;;;;;;78.82;44.17;;;;;;;;;;2049950;29;20179;-55
2021/10/07 02:37:34;;;;;;;81.45;41.53;;;;;;;;;;2049949;29;20182;-55
2021/10/07 02:38:34;;;;;;;82.35;41.05;;;;;;;;;;2051449;28;20238;-54
2021/10/07 02:39:35;;;;;;;77.57;39.58;;;;;;;;;;2058082;28;20268;-56
2021/10/07 02:40:35;;;;;;;91.75;42.00;;;;;;;;;;2051450;28;20295;-55
2021/10/07 02:41:35;;;;;;;85.30;41.40;;;;;;;;;;2051182;28;20287;-57
2021/10/07 02:42:36;;;;;;;96.22;42.97;;;;;;;;;;2053704;29;20868;-55
2021/10/07 02:43:36;;;;;;;97.20;45.95;;;;;;;;;;2053791;29;20242;-55
2021/10/07 02:44:36;;;;;;;99.45;45.10;;;;;;;;;;2054125;28;20183;-57
2021/10/07 02:45:37;;;;;;;88.97;43.05;;;;;;;;;;2048600;28;20232;-55
2021/10/07 02:46:37;;;;;;;87.32;40.63;;;;;;;;;;2052947;29;20171;-56
2021/10/07 02:47:38;;;;;;;91.38;43.35;;;;;;;;;;2052683;29;20218;-55
2021/10/07 02:48:39;;;;;;;81.80;41.33;;;;;;;;;;2052578;29;20225;-54
2021/10/07 02:49:39;;;;;;;79.20;40.75;;;;;;;;;;2051426;29;20168;-52
2021/10/07 02:50:40;;;;;;;80.15;39.45;;;;;;;;;;2050324;28;20541;-56
2021/10/07 02:51:40;;;;;;;81.78;40.67;;;;;;;;;;2051646;28;20186;-56
2021/10/07 02:52:40;;;;;;;107.18;45.50;;;;;;;;;;2045269;28;20179;-56
2021/10/07 02:53:40;;;;;;;84.60;43.03;;;;;;;;;;2049690;29;20561;-56
2021/10/07 02:54:41;;;;;;;91.43;42.72;;;;;;;;;;2043173;29;20200;-57
2021/10/07 02:55:41;;;;;;;85.32;43.00;;;;;;;;;;2051392;29;20713;-55
2021/10/07 02:56:42;;;;;;;90.55;44.08;;;;;;;;;;2051427;28;20190;-57
2021/10/07 02:57:45;;;;;;;98.78;46.55;;;;;;;;;;2051572;28;20183;-57
2021/10/07 02:58:45;;;;;;;112.50;49.33;;;;;;;;;;2050638;29;20657;-54
2021/10/07 02:59:45;;;;;;;140.68;55.67;;;;;;;;;;2050983;29;20182;-55
2021/10/07 03:00:45;;;;;;;100.00;46.90;;;;;;;;;;2050312;28;20718;-54
2021/10/07 03:01:46;;;;;;;114.80;47.45;;;;;;;;;;2058110;23;20282;-57
2021/10/07 03:02:46;;;;;;;114.68;48.90;;;;;;;;;;2038092;29;20263;-60
2021/10/07 03:03:46;;;;;;;138.40;51.33;;;;;;;;;;2039700;29;20608;-62
2021/10/07 03:04:48;;;;;;;158.32;56.13;;;;;;;;;;2040264;29;20193;-62
2021/10/07 03:05:49;;;;;;;148.52;56.28;;;;;;;;;;2041117;29;20180;-61
2021/10/07 03:06:49;;;;;;;115.22;51.50;;;;;;;;;;2039804;29;20258;-60
2021/10/07 03:07:49;;;;;;;120.18;48.85;;;;;;;;;;2039442;29;20180;-61
2021/10/07 03:08:50;;;;;;;107.55;46.88;;;;;;;;;;2041057;29;20175;-61
2021/10/07 03:09:50;;;;;;;92.72;42.47;;;;;;;;;;2040440;29;20179;-62
2021/10/07 03:10:50;;;;;;;90.65;41.17;;;;;;;;;;2040037;29;20657;-60
2021/10/07 03:11:50;;;;;;;88.05;40.45;;;;;;;;;;2038211;29;20231;-61
2021/10/07 03:12:50;;;;;;;86.47;40.90;;;;;;;;;;2032434;29;20928;-62
2021/10/07 03:13:51;;;;;;;94.28;41.22;;;;;;;;;;2033323;29;20708;-60
2021/10/07 03:14:51;;;;;;;237.02;63.63;;;;;;;;;;2033185;29;20552;-61
2021/10/07 03:15:51;;;;;;;123.78;48.75;;;;;;;;;;2032510;29;20192;-62
2021/10/07 03:16:51;;;;;;;112.68;46.28;;;;;;;;;;2032668;29;20184;-63
2021/10/07 03:17:52;;;;;;;102.00;43.22;;;;;;;;;;2033581;29;20230;-62
2021/10/07 03:18:52;;;;;;;91.30;43.10;;;;;;;;;;2033352;29;20203;-62
2021/10/07 03:19:52;;;;;;;107.53;44.50;;;;;;;;;;2032377;29;20192;-62
2021/10/07 03:20:55;;;;;;;100.18;42.20;;;;;;;;;;2032777;29;20200;-61
2021/10/07 03:21:56;;;;;;;115.97;47.97;;;;;;;;;;2032337;29;20716;-63
2021/10/07 03:22:56;;;;;;;120.78;46.17;;;;;;;;;;2032579;29;20187;-61
2021/10/07 03:23:56;;;;;;;96.38;41.58;;;;;;;;;;2032887;29;20339;-60
2021/10/07 03:24:56;;;;;;;88.32;40.08;;;;;;;;;;2032589;29;20181;-60
2021/10/07 03:25:57;;;;;;;109.45;43.72;;;;;;;;;;2033430;29;20164;-62
2021/10/07 03:26:57;;;;;;;94.82;39.92;;;;;;;;;;2029538;29;20275;-59
2021/10/07 03:27:57;;;;;;;118.95;45.42;;;;;;;;;;2032413;29;20188;-62
2021/10/07 03:28:58;;;;;;;98.20;41.55;;;;;;;;;;2030098;29;20186;-58
2021/10/07 03:29:59;;;;;;;101.55;41.22;;;;;;;;;;2033475;29;20375;-61
2021/10/07 03:30:59;;;;;;;100.32;43.90;;;;;;;;;;2032187;29;20200;-60
2021/10/07 03:31:59;;;;;;;103.72;42.67;;;;;;;;;;2033073;29;20204;-61
2021/10/07 03:33:04;;;;;;;89.22;41.58;;;;;;;;;;2032262;29;20180;-62
2021/10/07 03:34:04;;;;;;;107.60;44.20;;;;;;;;;;2030252;29;20180;-60
2021/10/07 03:35:04;;;;;;;112.45;44.25;;;;;;;;;;2030730;29;20546;-63
2021/10/07 03:36:05;;;;;;;113.60;45.78;;;;;;;;;;2027493;29;20180;-61
2021/10/07 03:37:05;;;;;;;131.18;48.72;;;;;;;;;;2028840;29;20181;-62
2021/10/07 03:38:06;;;;;;;113.28;45.92;;;;;;;;;;2032751;29;20172;-61
2021/10/07 03:39:06;;;;;;;105.20;45.72;;;;;;;;;;2031568;29;20185;-61
2021/10/07 03:40:07;;;;;;;111.20;43.78;;;;;;;;;;2029030;29;20258;-61
2021/10/07 03:41:08;;;;;;;114.40;45.13;;;;;;;;;;2031837;29;20185;-59
2021/10/07 03:42:09;;;;;;;95.72;43.38;;;;;;;;;;2032506;29;20562;-60
2021/10/07 03:43:09;;;;;;;100.22;44.65;;;;;;;;;;2033043;29;20211;-60
2021/10/07 03:44:09;;;;;;;132.50;47.72;;;;;;;;;;2032781;29;20168;-61
2021/10/07 03:45:09;;;;;;;159.05;51.28;;;;;;;;;;2032728;29;20184;-61
2021/10/07 03:46:10;;;;;;;113.25;46.00;;;;;;;;;;2033164;29;20275;-61
2021/10/07 03:47:11;;;;;;;179.88;57.10;;;;;;;;;;2033369;29;20638;-61
2021/10/07 03:48:11;;;;;;;117.22;46.58;;;;;;;;;;2033199;29;20184;-59
2021/10/07 03:49:11;;;;;;;151.73;53.15;;;;;;;;;;2033208;29;20216;-60
2021/10/07 03:50:11;;;;;;;135.48;48.85;;;;;;;;;;2032774;29;20200;-54
2021/10/07 03:51:12;;;;;;;119.15;48.38;;;;;;;;;;2032693;29;20253;-59
2021/10/07 03:52:12;;;;;;;228.73;60.28;;;;;;;;;;2032626;29;20279;-60
2021/10/07 03:53:13;;;;;;;124.68;46.55;;;;;;;;;;2033211;29;20164;-59
2021/10/07 03:54:13;;;;;;;134.68;48.00;;;;;;;;;;2032364;29;20204;-62
2021/10/07 03:55:13;;;;;;;101.90;44.70;;;;;;;;;;2031989;29;20176;-58
2021/10/07 03:56:14;;;;;;;105.60;44.50;;;;;;;;;;2032603;29;20184;-58
2021/10/07 03:57:14;;;;;;;100.88;42.72;;;;;;;;;;2032636;29;20247;-61
2021/10/07 03:58:14;;;;;;;99.57;43.45;;;;;;;;;;2032704;29;20224;-59
2021/10/07 03:59:14;;;;;;;99.90;42.63;;;;;;;;;;2033161;29;20645;-61
2021/10/07 04:00:17;;;;;;;114.43;42.92;;;;;;;;;;2032714;29;20176;-59
2021/10/07 04:01:17;;;;;;;90.70;39.85;;;;;;;;;;2032778;29;20187;-61
2021/10/07 04:02:17;;;;;;;86.35;38.30;;;;;;;;;;2032485;29;20283;-60
2021/10/07 04:03:17;;;;;;;101.15;41.58;;;;;;;;;;2032901;29;20184;-60
2021/10/07 04:04:18;;;;;;;97.45;39.88;;;;;;;;;;2033188;29;20179;-61
2021/10/07 04:05:18;;;;;;;92.25;36.80;;;;;;;;;;2033242;29;20324;-59
2021/10/07 04:06:18;;;;;;;110.45;40.10;;;;;;;;;;2033020;29;20215;-63
2021/10/07 04:07:19;;;;;;;125.50;41.30;;;;;;;;;;2032673;29;20267;-61
2021/10/07 04:08:19;;;;;;;136.68;45.58;;;;;;;;;;2033405;29;20171;-60
2021/10/07 04:09:19;;;;;;;204.73;51.55;;;;;;;;;;2033246;29;20196;-61
2021/10/07 04:10:19;;;;;;;182.82;49.78;;;;;;;;;;2023065;29;20216;-59
2021/10/07 04:11:20;;;;;;;119.35;45.47;;;;;;;;;;2032369;29;20231;-57
2021/10/07 04:12:20;;;;;;;114.07;44.50;;;;;;;;;;2032465;29;20207;-56
2021/10/07 04:13:21;;;;;;;124.28;44.08;;;;;;;;;;2029071;29;20177;-60
2021/10/07 04:14:21;;;;;;;149.93;47.03;;;;;;;;;;2032316;29;20184;-58
2021/10/07 04:15:22;;;;;;;158.00;49.63;;;;;;;;;;2029518;29;20251;-60
2021/10/07 04:16:24;;;;;;;116.82;46.80;;;;;;;;;;2031806;29;20188;-58
2021/10/07 04:17:24;;;;;;;170.85;52.05;;;;;;;;;;2032614;29;20179;-61
2021/10/07 04:18:24;;;;;;;125.05;49.30;;;;;;;;;;2033521;29;20180;-61
2021/10/07 04:19:24;;;;;;;121.05;46.83;;;;;;;;;;2032971;29;20649;-58
2021/10/07 04:20:25;;;;;;;155.43;51.33;;;;;;;;;;2032572;29;20213;-62
2021/10/07 04:21:25;;;;;;;161.00;52.17;;;;;;;;;;2032705;29;20217;-58
2021/10/07 04:22:25;;;;;;;155.90;52.88;;;;;;;;;;2033159;29;20185;-56
2021/10/07 04:23:25;;;;;;;154.23;47.00;;;;;;;;;;2033184;29;20518;-56
2021/10/07 04:24:26;;;;;;;111.22;44.60;;;;;;;;;;2033181;29;20538;-61
2021/10/07 04:25:26;;;;;;;153.02;48.67;;;;;;;;;;2032340;29;20538;-54
2021/10/07 04:26:27;;;;;;;183.35;54.28;;;;;;;;;;2029638;29;20185;-58
2021/10/07 04:27:27;;;;;;;261.90;59.47;;;;;;;;;;2029533;29;20208;-59
2021/10/07 04:28:27;;;;;;;125.47;51.22;;;;;;;;;;2032550;29;20203;-61
2021/10/07 04:29:27;;;;;;;154.85;53.08;;;;;;;;;;2033000;29;20181;-59
2021/10/07 04:30:28;;;;;;;120.57;46.28;;;;;;;;;;2032819;29;20232;-63
2021/10/07 04:31:28;;;;;;;122.97;46.03;;;;;;;;;;2032578;29;20176;-63
2021/10/07 04:32:28;;;;;;;109.95;44.40;;;;;;;;;;2032729;29;20338;-61
2021/10/07 04:33:28;;;;;;;113.63;44.10;;;;;;;;;;2032633;29;20180;-62
2021/10/07 04:34:29;;;;;;;110.38;46.60;;;;;;;;;;2033207;29;20188;-60
2021/10/07 04:35:29;;;;;;;112.97;46.78;;;;;;;;;;2032499;29;20176;-62
2021/10/07 04:36:29;;;;;;;123.45;47.05;;;;;;;;;;2032712;29;20222;-62
2021/10/07 04:37:30;;;;;;;116.55;45.92;;;;;;;;;;2032681;29;20180;-62
2021/10/07 04:38:30;;;;;;;138.57;47.10;;;;;;;;;;2032307;29;20664;-62
2021/10/07 04:39:30;;;;;;;112.30;45.65;;;;;;;;;;2033130;29;20183;-62
2021/10/07 04:40:30;;;;;;;87.95;39.17;;;;;;;;;;2032208;29;20204;-61
2021/10/07 04:41:31;;;;;;;84.68;39.85;;;;;;;;;;2027989;29;20684;-59
2021/10/07 04:42:31;;;;;;;80.70;42.13;;;;;;;;;;2024794;29;20632;-61
2021/10/07 04:43:31;;;;;;;144.43;49.42;;;;;;;;;;2030982;29;20252;-58
2021/10/07 04:44:31;;;;;;;89.70;42.63;;;;;;;;;;2033230;29;20239;-61
2021/10/07 04:45:32;;;;;;;221.20;49.25;;;;;;;;;;2032992;29;20663;-61
2021/10/07 04:46:32;;;;;;;105.18;42.92;;;;;;;;;;2032591;29;20164;-60
2021/10/07 04:47:32;;;;;;;218.60;53.70;;;;;;;;;;2024862;29;20181;-61
2021/10/07 04:48:33;;;;;;;279.67;57.05;;;;;;;;;;2032185;29;20232;-60
2021/10/07 04:49:33;;;;;;;289.13;60.55;;;;;;;;;;2033337;29;20635;-61
2021/10/07 04:50:33;;;;;;;139.00;45.58;;;;;;;;;;2027701;29;20224;-60
2021/10/07 04:51:33;;;;;;;156.55;49.83;;;;;;;;;;2032587;29;20207;-61
2021/10/07 04:52:34;;;;;;;191.90;54.83;;;;;;;;;;2032120;29;20663;-59
2021/10/07 04:53:34;;;;;;;110.55;43.58;;;;;;;;;;2033169;29;20228;-61
2021/10/07 04:54:34;;;;;;;99.57;42.83;;;;;;;;;;2032651;29;20259;-61
2021/10/07 04:55:35;;;;;;;76.47;38.55;;;;;;;;;;2032311;29;20173;-61
2021/10/07 04:56:35;;;;;;;93.32;43.60;;;;;;;;;;2029806;29;20251;-58
2021/10/07 04:57:35;;;;;;;74.60;37.92;;;;;;;;;;2031456;29;20630;-62
2021/10/07 04:58:35;;;;;;;85.38;42.28;;;;;;;;;;2031831;29;20712;-56
2021/10/07 04:59:36;;;;;;;104.60;42.83;;;;;;;;;;2032225;29;20745;-61
2021/10/07 05:00:36;;;;;;;84.15;39.08;;;;;;;;;;2031389;29;20673;-59
2021/10/07 05:01:36;;;;;;;116.32;42.83;;;;;;;;;;2032856;29;20181;-60
2021/10/07 05:02:37;;;;;;;71.22;37.60;;;;;;;;;;2027491;29;20651;-58
2021/10/07 05:03:37;;;;;;;74.03;37.95;;;;;;;;;;2031681;29;20191;-58
2021/10/07 05:04:37;;;;;;;80.90;39.53;;;;;;;;;;2031523;29;20212;-61
2021/10/07 05:05:38;;;;;;;75.30;37.17;;;;;;;;;;2032341;29;20191;-56
2021/10/07 05:06:38;;;;;;;71.22;36.60;;;;;;;;;;2023593;29;20200;-61
2021/10/07 05:07:39;;;;;;;80.63;35.05;;;;;;;;;;2031390;29;20200;-59
2021/10/07 05:08:39;;;;;;;94.05;37.55;;;;;;;;;;2032261;29;20699;-56
2021/10/07 05:09:40;;;;;;;68.25;34.72;;;;;;;;;;2032218;29;20215;-57
2021/10/07 05:10:40;;;;;;;59.53;33.03;;;;;;;;;;2025773;29;20180;-57
2021/10/07 05:11:40;;;;;;;68.65;33.33;;;;;;;;;;2031106;29;20697;-57
2021/10/07 05:12:40;;;;;;;59.72;31.23;;;;;;;;;;2030197;29;22514;-61
2021/10/07 05:13:41;;;;;;;123.82;37.88;;;;;;;;;;2032755;29;20537;-62
2021/10/07 05:14:41;;;;;;;186.65;42.95;;;;;;;;;;2029052;29;20197;-60
2021/10/07 05:15:41;;;;;;;90.20;35.00;;;;;;;;;;2034048;29;20209;-63
2021/10/07 05:16:42;;;;;;;79.68;33.70;;;;;;;;;;2035226;29;20212;-61
2021/10/07 05:17:42;;;;;;;56.50;31.67;;;;;;;;;;2032423;29;20192;-60
2021/10/07 05:18:42;;;;;;;81.38;32.85;;;;;;;;;;2033928;29;20193;-61
2021/10/07 05:19:43;;;;;;;106.65;33.97;;;;;;;;;;2034317;29;20211;-59
2021/10/07 05:20:45;;;;;;;66.32;31.35;;;;;;;;;;2030541;29;20228;-58
2021/10/07 05:21:45;;;;;;;64.47;30.52;;;;;;;;;;2031154;29;20226;-58
2021/10/07 05:22:46;;;;;;;88.22;32.25;;;;;;;;;;2034265;29;20176;-60
2021/10/07 05:23:46;;;;;;;102.25;32.90;;;;;;;;;;2034250;29;20180;-60
2021/10/07 05:24:46;;;;;;;74.68;29.58;;;;;;;;;;2034194;29;20188;-60
2021/10/07 05:25:47;;;;;;;100.68;33.33;;;;;;;;;;2034028;29;20173;-59
2021/10/07 05:26:47;;;;;;;116.47;33.70;;;;;;;;;;2034309;29;20231;-53
2021/10/07 05:27:48;;;;;;;71.18;31.95;;;;;;;;;;2033945;29;20649;-60
2021/10/07 05:28:48;;;;;;;64.68;29.75;;;;;;;;;;2034286;29;20208;-54
2021/10/07 05:29:48;;;;;;;66.72;30.02;;;;;;;;;;2033577;29;20188;-58
2021/10/07 05:30:50;;;;;;;54.15;28.58;;;;;;;;;;2033168;29;20188;-60
2021/10/07 05:31:51;;;;;;;63.63;29.77;;;;;;;;;;2034134;29;20557;-59
2021/10/07 05:32:51;;;;;;;69.88;29.10;;;;;;;;;;2034010;29;20240;-59
2021/10/07 05:33:51;;;;;;;83.78;29.52;;;;;;;;;;2034215;29;20184;-58
2021/10/07 05:34:52;;;;;;;50.47;29.00;;;;;;;;;;2026008;29;20220;-60
2021/10/07 05:35:52;;;;;;;63.35;30.45;;;;;;;;;;2021693;29;20206;-55
2021/10/07 05:36:52;;;;;;;80.97;31.08;;;;;;;;;;2029112;29;20650;-61
2021/10/07 05:37:53;;;;;;;98.57;33.90;;;;;;;;;;2032316;29;20187;-61
2021/10/07 05:38:53;;;;;;;70.88;29.75;;;;;;;;;;2032962;29;20179;-61
2021/10/07 05:39:53;;;;;;;71.78;29.73;;;;;;;;;;2033847;29;20633;-60
2021/10/07 05:40:54;;;;;;;63.58;32.40;;;;;;;;;;2033239;29;20212;-61
2021/10/07 05:41:54;;;;;;;76.47;30.20;;;;;;;;;;2033716;29;20256;-58
2021/10/07 05:42:54;;;;;;;81.82;31.13;;;;;;;;;;2033116;29;20675;-57
2021/10/07 05:43:54;;;;;;;61.15;29.25;;;;;;;;;;2034024;29;20180;-61
2021/10/07 05:44:55;;;;;;;66.68;30.13;;;;;;;;;;2033888;29;20165;-62
2021/10/07 05:45:55;;;;;;;49.10;28.88;;;;;;;;;;2034220;29;20183;-61
2021/10/07 05:46:55;;;;;;;56.45;28.58;;;;;;;;;;2034053;29;20188;-61
2021/10/07 05:47:55;;;;;;;53.53;30.13;;;;;;;;;;2033276;29;20186;-62
2021/10/07 05:48:56;;;;;;;63.65;28.67;;;;;;;;;;2032977;29;20168;-53
2021/10/07 05:49:56;;;;;;;56.10;28.38;;;;;;;;;;2032076;29;20180;-55
2021/10/07 05:50:56;;;;;;;51.53;28.95;;;;;;;;;;2033824;29;20184;-61
2021/10/07 05:51:56;;;;;;;48.60;27.60;;;;;;;;;;2034195;29;20558;-61
2021/10/07 05:52:57;;;;;;;68.57;29.02;;;;;;;;;;2034180;29;20606;-60
2021/10/07 05:53:57;;;;;;;68.95;30.58;;;;;;;;;;2034156;29;20199;-60
2021/10/07 05:54:57;;;;;;;67.75;30.77;;;;;;;;;;2033652;29;20190;-58
2021/10/07 05:55:57;;;;;;;58.08;30.08;;;;;;;;;;2033107;29;20192;-58
2021/10/07 05:56:58;;;;;;;63.78;31.65;;;;;;;;;;2033599;29;20176;-60
2021/10/07 05:57:58;;;;;;;63.95;30.92;;;;;;;;;;2033130;29;20172;-60